Time;durP1;ratioP1;P1;durP2;ratioP2;P2;SDS_P1;SDS_P2;PMS_P1;PMS_P2;Temp;Humidity;BMP_temperature;BMP_pressure;BME280_temperature;BME280_humidity;BME280_pressure;Samples;Min_cycle;Max_cycle;Signal;HPM_P1;HPM_P2
2022/07/30 00:03:09;;;;;;;3.30;2.10;;;22.50;59.80;;;;;;10517840;28;20020;-54
2022/07/30 00:08:10;;;;;;;3.50;2.47;;;22.60;59.90;;;;;;10535915;28;20854;-57
2022/07/30 00:13:11;;;;;;;3.42;2.58;;;22.60;59.90;;;;;;10535403;28;20048;-53
2022/07/30 00:18:12;;;;;;;3.20;1.95;;;22.60;60.00;;;;;;10535330;28;20028;-54
2022/07/30 00:23:12;;;;;;;4.15;2.40;;;22.50;60.00;;;;;;10517121;28;20507;-54
2022/07/30 00:28:13;;;;;;;4.28;2.35;;;22.50;60.00;;;;;;10534902;28;20085;-55
2022/07/30 00:33:14;;;;;;;3.75;2.10;;;22.50;60.10;;;;;;10535120;28;20032;-55
2022/07/30 00:38:14;;;;;;;5.03;2.22;;;22.50;60.10;;;;;;10534766;28;20036;-54
2022/07/30 00:43:17;;;;;;;4.10;2.38;;;22.50;60.10;;;;;;10534359;28;20027;-53
2022/07/30 00:48:17;;;;;;;2.45;1.95;;;22.50;60.10;;;;;;10515265;28;20028;-53
2022/07/30 00:53:18;;;;;;;4.35;2.70;;;22.50;60.20;;;;;;10534061;28;20437;-53
2022/07/30 00:58:19;;;;;;;3.92;2.30;;;22.50;60.20;;;;;;10534076;28;20032;-55
2022/07/30 01:03:20;;;;;;;3.15;2.38;;;22.50;60.20;;;;;;10533952;28;20566;-54
2022/07/30 01:08:21;;;;;;;4.20;2.08;;;22.50;60.30;;;;;;10533851;28;20483;-54
2022/07/30 01:13:22;;;;;;;4.45;2.45;;;22.50;60.30;;;;;;10533795;28;20103;-54
2022/07/30 01:19:47;;;;;;;3.10;2.17;;;22.50;60.30;;;;;;10515481;28;20113;-55
2022/07/30 01:23:49;;;;;;;2.80;1.80;;;22.50;60.30;;;;;;10505024;28;20038;-54
2022/07/30 01:28:54;;;;;;;4.43;1.90;;;22.50;60.30;;;;;;10515192;28;20028;-53
2022/07/30 01:33:57;;;;;;;2.97;1.90;;;22.50;60.30;;;;;;10514915;28;20467;-54
2022/07/30 01:38:59;;;;;;;2.72;2.20;;;22.50;60.40;;;;;;10532669;28;20562;-55
2022/07/30 01:44:02;;;;;;;3.30;1.85;;;22.50;60.50;;;;;;10514878;28;20024;-53
2022/07/30 01:49:03;;;;;;;3.05;1.77;;;22.50;60.50;;;;;;10514775;28;20047;-53
2022/07/30 01:54:08;;;;;;;2.28;1.90;;;22.50;60.50;;;;;;10514937;28;20051;-55
2022/07/30 01:59:10;;;;;;;4.18;2.00;;;22.50;60.50;;;;;;10516226;28;20422;-53
2022/07/30 02:04:11;;;;;;;3.70;2.17;;;22.50;60.60;;;;;;10540785;28;20020;-54
2022/07/30 02:09:17;;;;;;;3.67;2.22;;;22.50;60.50;;;;;;10522292;28;20028;-55
2022/07/30 02:14:26;;;;;;;4.72;2.53;;;22.50;60.60;;;;;;10522722;28;20040;-54
2022/07/30 02:19:41;;;;;;;2.97;2.38;;;22.50;60.60;;;;;;10522576;28;20038;-55
2022/07/30 02:24:42;;;;;;;5.30;2.35;;;22.50;60.60;;;;;;10540057;28;20433;-55
2022/07/30 02:29:46;;;;;;;2.75;1.85;;;22.50;60.60;;;;;;10521731;28;20032;-54
2022/07/30 02:34:54;;;;;;;2.60;1.92;;;22.50;61.20;;;;;;10521611;28;20118;-54
2022/07/30 02:39:55;;;;;;;2.95;1.90;;;22.40;60.60;;;;;;10495834;28;20041;-54
2022/07/30 02:44:57;;;;;;;3.95;2.22;;;22.40;61.10;;;;;;10497177;28;20028;-55
2022/07/30 02:50:01;;;;;;;2.75;1.98;;;22.40;60.60;;;;;;10497165;28;20056;-54
2022/07/30 02:55:03;;;;;;;2.47;1.90;;;22.40;60.70;;;;;;10495596;28;20028;-54
2022/07/30 03:00:05;;;;;;;2.90;1.90;;;22.40;60.60;;;;;;10495502;28;20048;-55
2022/07/30 03:05:08;;;;;;;3.38;2.00;;;22.40;60.60;;;;;;10496531;28;20051;-55
2022/07/30 03:10:12;;;;;;;2.85;1.75;;;22.40;60.60;;;;;;10494738;28;20033;-56
2022/07/30 03:15:13;;;;;;;3.28;2.33;;;22.40;60.70;;;;;;10494641;28;20036;-53
2022/07/30 03:20:17;;;;;;;3.80;2.05;;;22.40;60.70;;;;;;10494400;28;20107;-55
2022/07/30 03:25:25;;;;;;;3.53;1.95;;;22.40;60.70;;;;;;10494137;28;20025;-54
2022/07/30 03:30:27;;;;;;;2.85;2.03;;;22.40;60.70;;;;;;10494337;28;20035;-54
2022/07/30 03:35:28;;;;;;;3.25;2.00;;;22.40;60.70;;;;;;10494311;28;20707;-53
2022/07/30 03:40:30;;;;;;;2.45;1.95;;;22.40;60.80;;;;;;10477257;28;20071;-53
2022/07/30 03:45:32;;;;;;;3.05;2.03;;;22.40;60.80;;;;;;10493591;28;20189;-55
2022/07/30 03:50:35;;;;;;;3.35;1.92;;;22.40;60.80;;;;;;10494558;28;20460;-53
2022/07/30 03:55:36;;;;;;;3.80;2.60;;;22.40;60.80;;;;;;10491597;28;20082;-54
2022/07/30 04:00:39;;;;;;;2.42;2.00;;;22.40;60.90;;;;;;10489978;28;20024;-55
2022/07/30 04:05:40;;;;;;;3.33;2.20;;;22.40;60.80;;;;;;10489984;28;20070;-55
2022/07/30 04:10:41;;;;;;;3.22;2.33;;;22.40;60.80;;;;;;10486914;28;20032;-54
2022/07/30 04:16:08;;;;;;;2.70;2.25;;;22.40;60.90;;;;;;10492396;28;20099;-54
2022/07/30 04:21:10;;;;;;;3.88;2.95;;;22.40;60.80;;;;;;10490061;28;20059;-53
2022/07/30 04:26:12;;;;;;;4.50;2.47;;;22.40;60.90;;;;;;10491338;28;20037;-55
2022/07/30 04:31:14;;;;;;;3.63;2.25;;;22.40;60.90;;;;;;10491724;28;20029;-54
2022/07/30 04:36:15;;;;;;;3.10;2.22;;;22.40;60.90;;;;;;10490792;28;20713;-55
2022/07/30 04:41:15;;;;;;;4.47;2.38;;;22.30;60.80;;;;;;10532516;28;20044;-54
2022/07/30 04:46:16;;;;;;;3.38;2.25;;;22.40;60.90;;;;;;10531574;28;20093;-54
2022/07/30 04:51:28;;;;;;;3.75;2.20;;;22.30;60.90;;;;;;10533227;28;20056;-54
2022/07/30 04:56:32;;;;;;;3.42;2.25;;;22.30;60.90;;;;;;10516927;28;20106;-54
2022/07/30 05:01:34;;;;;;;3.95;2.20;;;22.30;60.90;;;;;;10515388;28;20704;-54
2022/07/30 05:06:36;;;;;;;6.13;3.03;;;22.30;60.90;;;;;;10528238;28;20055;-55
2022/07/30 05:11:37;;;;;;;5.43;2.38;;;22.40;61.20;;;;;;10496527;28;20491;-53
2022/07/30 05:16:38;;;;;;;3.95;2.28;;;22.40;61.50;;;;;;10529046;28;20119;-57
2022/07/30 05:21:39;;;;;;;6.20;2.80;;;22.40;61.40;;;;;;10532978;28;20028;-55
2022/07/30 05:26:40;;;;;;;8.30;2.85;;;22.50;62.40;;;;;;10533160;28;20024;-54
2022/07/30 05:31:41;;;;;;;6.50;2.75;;;22.50;62.30;;;;;;10514814;28;20024;-57
2022/07/30 05:36:43;;;;;;;8.30;3.00;;;22.50;62.70;;;;;;10497562;28;20032;-57
2022/07/30 05:41:44;;;;;;;10.13;3.40;;;22.50;62.50;;;;;;10508683;28;20115;-54
2022/07/30 05:46:45;;;;;;;5.50;2.60;;;22.50;62.80;;;;;;10513806;28;20405;-52
2022/07/30 05:51:46;;;;;;;13.07;4.78;;;22.50;62.20;;;;;;10514015;28;20032;-54
2022/07/30 05:56:46;;;;;;;20.15;4.80;;;22.50;62.40;;;;;;10489379;28;20035;-54
2022/07/30 06:01:47;;;;;;;35.67;6.47;;;22.40;62.50;;;;;;10529683;28;20032;-54
2022/07/30 06:06:48;;;;;;;18.15;5.45;;;22.50;62.50;;;;;;10511786;28;20119;-52
2022/07/30 06:11:48;;;;;;;17.70;4.30;;;22.50;62.90;;;;;;10512983;28;20103;-52
2022/07/30 06:16:49;;;;;;;11.40;3.75;;;22.50;62.80;;;;;;10530533;28;20040;-54
2022/07/30 06:21:50;;;;;;;23.52;5.80;;;22.40;62.50;;;;;;10530596;28;20040;-55
2022/07/30 06:26:51;;;;;;;24.45;6.22;;;22.40;63.20;;;;;;10511373;28;20029;-53
2022/07/30 06:31:51;;;;;;;19.73;5.95;;;22.40;63.10;;;;;;10530668;28;20039;-53
2022/07/30 06:36:52;;;;;;;19.05;4.97;;;22.40;62.80;;;;;;10512322;28;20052;-55
2022/07/30 06:41:53;;;;;;;17.13;4.97;;;22.50;62.80;;;;;;10512615;28;20780;-53
2022/07/30 06:46:54;;;;;;;22.67;5.65;;;22.50;62.60;;;;;;10516195;28;20020;-53
2022/07/30 06:51:54;;;;;;;14.82;5.57;;;22.50;62.60;;;;;;10538013;28;20558;-52
2022/07/30 06:56:55;;;;;;;14.32;5.35;;;22.40;62.70;;;;;;10519429;28;20042;-54
2022/07/30 07:01:56;;;;;;;10.88;5.00;;;22.40;62.40;;;;;;10502536;28;20039;-53
2022/07/30 07:06:57;;;;;;;13.30;5.43;;;22.40;62.70;;;;;;10518716;28;20028;-54
2022/07/30 07:11:58;;;;;;;18.33;5.53;;;22.40;62.60;;;;;;10536787;28;20039;-55
2022/07/30 07:16:59;;;;;;;9.93;5.07;;;22.40;62.30;;;;;;10518823;28;20023;-55
2022/07/30 07:21:59;;;;;;;6.45;3.97;;;22.40;62.40;;;;;;10536384;28;20050;-55
2022/07/30 07:27:00;;;;;;;11.07;3.60;;;22.40;62.40;;;;;;10537086;28;20459;-53
2022/07/30 07:32:01;;;;;;;8.10;4.18;;;22.40;62.30;;;;;;10509963;28;20076;-53
2022/07/30 07:37:01;;;;;;;10.95;4.07;;;22.40;62.40;;;;;;10517330;28;20048;-54
2022/07/30 07:42:02;;;;;;;5.53;3.55;;;22.50;62.40;;;;;;10517552;28;20104;-52
2022/07/30 07:47:03;;;;;;;17.85;4.95;;;22.50;62.40;;;;;;10535276;28;20031;-54
2022/07/30 07:52:05;;;;;;;8.90;3.83;;;22.50;62.40;;;;;;10535038;28;20051;-53
2022/07/30 07:57:08;;;;;;;8.52;4.05;;;22.50;62.40;;;;;;10535089;28;20478;-55
2022/07/30 08:02:09;;;;;;;6.15;3.60;;;22.50;62.40;;;;;;10517697;28;20024;-55
2022/07/30 08:07:09;;;;;;;9.48;4.40;;;22.50;62.30;;;;;;10534906;28;20091;-54
2022/07/30 08:12:11;;;;;;;8.32;3.53;;;22.50;62.20;;;;;;10534641;28;20028;-52
2022/07/30 08:17:12;;;;;;;12.70;4.10;;;22.50;62.20;;;;;;10516451;28;20024;-57
2022/07/30 08:22:13;;;;;;;5.13;2.88;;;22.50;62.10;;;;;;10535180;28;20434;-54
2022/07/30 08:27:14;;;;;;;4.68;3.03;;;22.60;62.10;;;;;;10512050;28;20028;-53
2022/07/30 08:32:15;;;;;;;9.27;3.85;;;22.50;62.00;;;;;;10532013;28;20120;-55
2022/07/30 08:37:15;;;;;;;7.35;2.85;;;22.50;62.00;;;;;;10534222;28;20080;-55
2022/07/30 08:42:16;;;;;;;5.53;2.80;;;22.60;62.00;;;;;;10534768;28;20028;-55
2022/07/30 08:47:19;;;;;;;6.30;3.40;;;22.60;61.90;;;;;;10533158;28;20554;-54
2022/07/30 08:52:20;;;;;;;9.95;3.75;;;22.60;61.90;;;;;;10498663;28;20028;-55
2022/07/30 08:57:22;;;;;;;14.98;4.07;;;22.60;61.80;;;;;;10515798;28;20060;-53
2022/07/30 09:02:23;;;;;;;34.47;5.80;;;22.60;61.80;;;;;;10515683;28;20414;-53
2022/07/30 09:07:23;;;;;;;15.68;4.18;;;22.60;61.90;;;;;;10498760;28;20164;-54
2022/07/30 09:12:44;;;;;;;19.60;5.22;;;22.60;61.20;;;;;;10532839;28;20020;-55
2022/07/30 09:17:55;;;;;;;19.55;4.55;;;22.70;61.20;;;;;;10533387;28;20352;-55
2022/07/30 09:23:01;;;;;;;18.38;4.97;;;22.70;61.00;;;;;;10532419;28;20052;-55
2022/07/30 09:28:03;;;;;;;18.88;4.03;;;22.70;60.40;;;;;;10489995;28;20043;-54
2022/07/30 09:33:04;;;;;;;14.80;3.75;;;22.70;60.20;;;;;;10513197;28;20448;-54
2022/07/30 09:38:06;;;;;;;11.50;3.13;;;22.70;59.90;;;;;;10530692;28;20036;-55
2022/07/30 09:43:09;;;;;;;10.43;3.38;;;22.70;59.90;;;;;;10513333;28;20032;-55
2022/07/30 09:48:22;;;;;;;12.05;3.83;;;22.70;59.90;;;;;;10514276;28;20031;-53
2022/07/30 09:53:23;;;;;;;17.88;4.45;;;22.70;59.70;;;;;;10531405;28;20040;-54
2022/07/30 09:58:40;;;;;;;13.43;3.72;;;22.70;59.10;;;;;;10530291;28;20367;-53
2022/07/30 10:03:42;;;;;;;17.17;4.13;;;22.70;58.70;;;;;;10512671;28;20036;-52
2022/07/30 10:08:52;;;;;;;13.18;3.70;;;22.70;58.90;;;;;;10508673;28;20040;-57
2022/07/30 10:13:55;;;;;;;7.28;3.17;;;22.70;56.90;;;;;;10526457;28;20059;-58
2022/07/30 10:18:58;;;;;;;9.60;2.78;;;22.80;58.30;;;;;;10526970;28;20050;-54
2022/07/30 10:24:00;;;;;;;7.85;3.63;;;22.80;57.50;;;;;;10538184;28;20040;-56
2022/07/30 10:29:02;;;;;;;5.65;3.15;;;22.80;57.80;;;;;;10520659;28;20047;-56
2022/07/30 10:34:03;;;;;;;10.68;3.35;;;22.80;58.30;;;;;;10538248;28;20028;-57
2022/07/30 10:39:06;;;;;;;8.23;2.67;;;22.80;57.70;;;;;;10519074;28;20044;-60
2022/07/30 10:44:44;;;;;;;6.88;3.13;;;22.90;57.70;;;;;;10517937;28;20070;-55
2022/07/30 10:50:15;;;;;;;8.35;4.15;;;22.90;57.70;;;;;;10536877;28;20032;-56
2022/07/30 10:55:25;;;;;;;6.45;2.90;;;22.90;57.40;;;;;;10537184;28;20429;-53
2022/07/30 11:00:28;;;;;;;6.50;2.90;;;22.90;57.90;;;;;;10534967;28;20031;-54
2022/07/30 11:05:29;;;;;;;7.63;2.97;;;22.90;58.10;;;;;;10518338;28;20039;-55
2022/07/30 11:10:39;;;;;;;5.75;2.72;;;22.90;57.90;;;;;;10536881;28;20399;-56
2022/07/30 11:15:57;;;;;;;6.97;3.03;;;22.90;57.90;;;;;;10536825;28;20383;-56
2022/07/30 11:21:15;;;;;;;9.30;3.58;;;23.00;58.00;;;;;;10536069;28;20047;-55
2022/07/30 11:26:51;;;;;;;7.50;3.43;;;23.00;57.60;;;;;;10530800;28;20055;-55
2022/07/30 11:31:52;;;;;;;8.90;4.30;;;22.90;57.50;;;;;;10407584;28;20466;-54
2022/07/30 11:37:18;;;;;;;10.60;3.60;;;23.00;57.90;;;;;;10518934;28;20047;-54
2022/07/30 11:42:26;;;;;;;10.90;3.72;;;23.00;57.70;;;;;;10519643;28;20475;-54
2022/07/30 11:47:27;;;;;;;17.80;6.15;;;22.90;57.50;;;;;;10535630;28;20070;-55
2022/07/30 11:52:28;;;;;;;16.63;5.07;;;23.00;57.10;;;;;;10536372;28;20076;-54
2022/07/30 11:57:41;;;;;;;20.27;4.85;;;23.00;57.40;;;;;;10536210;28;20039;-55
2022/07/30 12:02:42;;;;;;;14.55;4.65;;;23.00;57.00;;;;;;10536156;28;20036;-52
2022/07/30 12:07:44;;;;;;;15.25;4.05;;;23.00;57.20;;;;;;10502538;28;20042;-55
2022/07/30 12:12:45;;;;;;;13.00;4.53;;;23.10;57.70;;;;;;10534853;28;20040;-55
2022/07/30 12:17:46;;;;;;;13.65;4.47;;;23.10;57.60;;;;;;10534828;28;20021;-55
2022/07/30 12:22:47;;;;;;;16.25;4.35;;;23.10;58.10;;;;;;10534796;28;20123;-55
2022/07/30 12:27:48;;;;;;;13.50;4.07;;;23.10;58.00;;;;;;10534422;28;20085;-56
2022/07/30 12:32:49;;;;;;;12.93;4.00;;;23.20;58.20;;;;;;10464696;28;20032;-53
2022/07/30 12:38:04;;;;;;;20.17;6.15;;;23.20;58.10;;;;;;10512465;28;20036;-55
2022/07/30 12:43:05;;;;;;;19.95;4.72;;;23.20;58.80;;;;;;10516113;28;20468;-53
2022/07/30 12:48:10;;;;;;;19.85;4.18;;;23.20;58.80;;;;;;10516479;28;20024;-56
2022/07/30 12:53:10;;;;;;;23.65;5.35;;;23.20;58.80;;;;;;10516354;28;20425;-57
2022/07/30 12:58:11;;;;;;;18.98;4.63;;;23.20;58.80;;;;;;10516015;28;20028;-55
2022/07/30 13:03:27;;;;;;;28.98;6.47;;;23.20;58.90;;;;;;10515855;28;20028;-56
2022/07/30 13:08:50;;;;;;;22.52;5.43;;;23.20;58.80;;;;;;10533128;28;20055;-55
2022/07/30 13:13:52;;;;;;;20.75;5.88;;;23.20;59.10;;;;;;10531009;28;20118;-55
2022/07/30 13:18:52;;;;;;;25.08;5.85;;;23.20;59.20;;;;;;10532007;28;20812;-55
2022/07/30 13:23:53;;;;;;;16.33;4.95;;;23.20;59.20;;;;;;10514165;28;20032;-57
2022/07/30 13:28:55;;;;;;;21.27;5.35;;;23.20;59.20;;;;;;10531967;28;20103;-55
2022/07/30 13:33:56;;;;;;;15.18;5.45;;;23.10;59.10;;;;;;10532806;28;20120;-55
2022/07/30 13:38:57;;;;;;;18.35;5.05;;;23.10;59.10;;;;;;10532110;28;20100;-56
2022/07/30 13:43:57;;;;;;;15.70;4.30;;;23.10;58.80;;;;;;10532480;28;20038;-56
2022/07/30 13:48:58;;;;;;;6.88;3.90;;;23.10;58.80;;;;;;10531865;28;20031;-54
2022/07/30 13:53:59;;;;;;;11.75;4.28;;;23.10;58.80;;;;;;10532059;28;20027;-55
2022/07/30 13:59:00;;;;;;;11.15;3.85;;;23.10;58.80;;;;;;10537222;28;20024;-53
2022/07/30 14:04:01;;;;;;;10.55;4.38;;;23.10;59.00;;;;;;10518865;28;20544;-55
2022/07/30 14:09:02;;;;;;;9.05;3.58;;;23.10;59.10;;;;;;10538463;28;20120;-61
2022/07/30 14:14:03;;;;;;;8.77;3.30;;;23.10;59.10;;;;;;10520321;28;20380;-54
2022/07/30 14:19:04;;;;;;;6.80;3.55;;;23.10;59.20;;;;;;10538913;28;20032;-54
2022/07/30 14:24:05;;;;;;;5.70;3.55;;;23.10;59.30;;;;;;10538851;28;20028;-56
2022/07/30 14:29:06;;;;;;;7.72;3.20;;;23.10;59.40;;;;;;10538815;28;20391;-55
2022/07/30 14:34:07;;;;;;;6.32;3.00;;;23.10;59.40;;;;;;10538310;28;20119;-55
2022/07/30 14:39:08;;;;;;;5.80;3.20;;;23.10;59.50;;;;;;10520005;28;20036;-55
2022/07/30 14:44:11;;;;;;;9.45;3.20;;;23.10;59.50;;;;;;10538074;28;20024;-56
2022/07/30 14:49:12;;;;;;;5.13;3.33;;;23.00;59.50;;;;;;10520226;28;20031;-56
2022/07/30 14:54:13;;;;;;;8.73;2.78;;;23.10;59.60;;;;;;10538169;28;20024;-55
2022/07/30 14:59:14;;;;;;;3.80;2.85;;;23.00;59.60;;;;;;10537524;28;20032;-54
2022/07/30 15:04:15;;;;;;;11.15;4.07;;;23.00;59.60;;;;;;10519436;28;20439;-54
2022/07/30 15:09:15;;;;;;;5.68;3.00;;;23.00;59.70;;;;;;10536351;28;20024;-55
2022/07/30 15:14:16;;;;;;;3.58;2.65;;;23.00;59.60;;;;;;10519193;28;20039;-56
2022/07/30 15:19:17;;;;;;;6.10;2.60;;;23.00;59.70;;;;;;10518436;28;20024;-55
2022/07/30 15:24:17;;;;;;;6.13;2.70;;;23.00;59.70;;;;;;10518876;28;20050;-55
2022/07/30 15:29:18;;;;;;;8.77;2.63;;;23.00;59.70;;;;;;10536431;28;20032;-56
2022/07/30 15:34:19;;;;;;;5.60;2.90;;;23.00;59.70;;;;;;10508861;28;20824;-55
2022/07/30 15:39:19;;;;;;;5.75;3.10;;;23.00;60.40;;;;;;10529419;28;20098;-57
2022/07/30 15:44:20;;;;;;;5.25;2.90;;;23.00;59.80;;;;;;10536104;28;20134;-53
2022/07/30 15:49:21;;;;;;;5.35;3.15;;;23.00;59.70;;;;;;10535334;28;20030;-53
2022/07/30 15:54:22;;;;;;;3.85;2.83;;;23.00;59.80;;;;;;10517491;28;20036;-53
2022/07/30 15:59:22;;;;;;;4.22;2.50;;;23.00;59.70;;;;;;10535676;28;20024;-54
2022/07/30 16:04:23;;;;;;;3.50;2.00;;;23.00;59.80;;;;;;10534629;28;20036;-55
2022/07/30 16:09:24;;;;;;;3.95;2.20;;;23.00;59.60;;;;;;10534684;28;20662;-54
2022/07/30 16:14:25;;;;;;;4.05;2.03;;;23.00;59.80;;;;;;10534680;28;20028;-54
2022/07/30 16:19:27;;;;;;;3.30;2.13;;;23.00;59.80;;;;;;10532849;28;20024;-56
2022/07/30 16:24:27;;;;;;;2.95;2.45;;;23.00;59.80;;;;;;10516272;28;20090;-55
2022/07/30 16:29:28;;;;;;;2.33;2.03;;;23.00;59.90;;;;;;10508033;28;20034;-55
2022/07/30 16:34:29;;;;;;;2.70;2.17;;;23.00;59.90;;;;;;10533691;28;20032;-56
2022/07/30 16:39:30;;;;;;;4.68;2.08;;;23.00;59.80;;;;;;10533481;28;20070;-56
2022/07/30 16:44:32;;;;;;;3.33;1.95;;;23.00;59.90;;;;;;10533373;28;20051;-56
2022/07/30 16:49:33;;;;;;;5.95;2.97;;;23.00;59.80;;;;;;10533247;28;20031;-54
2022/07/30 16:54:34;;;;;;;4.13;2.15;;;23.00;59.80;;;;;;10533294;28;20039;-56
2022/07/30 16:59:35;;;;;;;3.70;2.38;;;23.00;59.80;;;;;;10519187;28;20032;-56
2022/07/30 17:04:37;;;;;;;3.22;2.20;;;23.00;59.90;;;;;;10532786;28;20403;-55
2022/07/30 17:09:38;;;;;;;3.50;2.92;;;23.00;59.80;;;;;;10532744;28;20043;-53
2022/07/30 17:14:42;;;;;;;7.50;3.08;;;23.00;59.80;;;;;;10498131;28;20491;-55
2022/07/30 17:19:42;;;;;;;9.95;3.10;;;23.10;61.40;;;;;;10532335;28;20027;-55
2022/07/30 17:24:43;;;;;;;14.23;2.83;;;23.10;60.30;;;;;;10533166;28;20030;-55
2022/07/30 17:29:44;;;;;;;7.70;2.92;;;23.10;60.40;;;;;;10513944;28;20701;-54
2022/07/30 17:34:46;;;;;;;5.68;2.60;;;23.00;60.30;;;;;;10513754;28;20054;-56
2022/07/30 17:39:47;;;;;;;7.50;3.20;;;23.00;60.10;;;;;;10532665;28;20055;-56
2022/07/30 17:44:50;;;;;;;9.13;3.40;;;23.00;59.80;;;;;;10525294;28;20417;-56
2022/07/30 17:49:52;;;;;;;13.48;3.35;;;23.00;60.20;;;;;;10521884;28;20024;-55
2022/07/30 17:54:53;;;;;;;11.27;3.83;;;23.00;60.10;;;;;;10531588;28;20028;-54
2022/07/30 17:59:54;;;;;;;8.25;3.17;;;23.10;60.20;;;;;;10513202;28;20402;-56
2022/07/30 18:04:54;;;;;;;5.55;2.28;;;23.10;60.10;;;;;;10513533;28;20031;-56
2022/07/30 18:09:55;;;;;;;9.63;3.40;;;23.10;60.10;;;;;;10513146;28;20020;-57
2022/07/30 18:14:56;;;;;;;8.13;2.80;;;23.10;59.90;;;;;;10530829;28;20055;-54
2022/07/30 18:19:56;;;;;;;11.00;3.35;;;23.10;59.80;;;;;;10531938;28;20036;-55
2022/07/30 18:24:59;;;;;;;6.28;2.58;;;23.00;60.30;;;;;;10531976;28;20032;-54
2022/07/30 18:30:00;;;;;;;3.95;2.47;;;23.00;59.40;;;;;;10532019;28;20035;-55
2022/07/30 18:35:00;;;;;;;5.32;2.50;;;23.00;59.20;;;;;;10531552;28;20459;-55
2022/07/30 18:40:02;;;;;;;4.85;2.83;;;23.00;59.00;;;;;;10513402;28;20136;-55
2022/07/30 18:45:04;;;;;;;4.90;2.55;;;23.00;58.70;;;;;;10521105;28;20432;-55
2022/07/30 18:50:06;;;;;;;2.88;1.88;;;23.00;58.50;;;;;;10521361;28;20403;-55
2022/07/30 18:55:10;;;;;;;6.03;3.05;;;23.00;58.30;;;;;;10521033;28;20036;-55
2022/07/30 19:00:13;;;;;;;4.35;2.42;;;23.00;58.20;;;;;;10538819;28;20436;-55
2022/07/30 19:05:15;;;;;;;6.03;3.22;;;23.00;58.10;;;;;;10538845;28;20654;-55
2022/07/30 19:10:16;;;;;;;2.92;1.88;;;23.00;58.20;;;;;;10538559;28;20360;-57
2022/07/30 19:15:17;;;;;;;8.80;3.72;;;23.00;58.10;;;;;;10537094;28;20117;-54
2022/07/30 19:20:18;;;;;;;2.83;2.05;;;23.00;57.80;;;;;;10535327;28;20073;-54
2022/07/30 19:25:19;;;;;;;2.85;2.40;;;23.00;57.60;;;;;;10536827;28;20023;-54
2022/07/30 19:30:20;;;;;;;3.63;1.88;;;23.00;57.80;;;;;;10535627;28;20141;-53
2022/07/30 19:35:21;;;;;;;3.53;2.65;;;23.00;58.00;;;;;;10517408;28;20036;-53
2022/07/30 19:40:22;;;;;;;4.05;2.42;;;23.00;58.20;;;;;;10517272;28;20539;-55
2022/07/30 19:45:23;;;;;;;3.55;2.40;;;23.00;58.30;;;;;;10535137;28;20047;-56
2022/07/30 19:50:24;;;;;;;3.85;2.35;;;23.00;58.30;;;;;;10517400;28;20036;-56
2022/07/30 19:55:25;;;;;;;4.68;2.80;;;23.00;58.40;;;;;;10534908;28;20055;-56
2022/07/30 20:00:26;;;;;;;2.80;2.00;;;23.00;58.50;;;;;;10534097;28;20119;-56
2022/07/30 20:05:27;;;;;;;2.72;2.10;;;23.00;58.60;;;;;;10532837;28;20030;-55
2022/07/30 20:10:27;;;;;;;3.17;2.10;;;23.00;58.70;;;;;;10533015;28;20384;-55
2022/07/30 20:15:28;;;;;;;2.53;2.05;;;23.00;58.70;;;;;;10532713;28;20107;-54
2022/07/30 20:20:29;;;;;;;2.97;2.13;;;23.00;58.70;;;;;;10531246;28;20450;-55
2022/07/30 20:25:29;;;;;;;2.67;2.28;;;23.00;58.70;;;;;;10532059;28;20027;-52
2022/07/30 20:30:31;;;;;;;3.25;1.85;;;23.00;58.70;;;;;;10531959;28;20487;-56
2022/07/30 20:35:32;;;;;;;2.22;1.77;;;23.00;58.70;;;;;;10513265;28;20027;-58
2022/07/30 20:40:32;;;;;;;2.47;1.75;;;23.00;58.70;;;;;;10531617;28;20048;-56
2022/07/30 20:45:35;;;;;;;3.67;2.80;;;23.00;58.70;;;;;;10512230;28;20020;-56
2022/07/30 20:50:37;;;;;;;3.08;2.30;;;23.00;58.70;;;;;;10531684;28;20486;-54
2022/07/30 20:55:38;;;;;;;3.47;2.45;;;23.00;58.70;;;;;;10531656;28;20115;-56
2022/07/30 21:00:40;;;;;;;2.88;2.22;;;23.00;58.50;;;;;;10513219;28;20036;-55
2022/07/30 21:05:45;;;;;;;4.35;2.85;;;23.00;58.60;;;;;;10530390;28;20020;-55
2022/07/30 21:10:46;;;;;;;3.88;2.13;;;23.00;58.60;;;;;;10530414;28;20031;-55
2022/07/30 21:15:47;;;;;;;3.00;2.45;;;23.00;58.50;;;;;;10512240;28;20249;-56
2022/07/30 21:20:48;;;;;;;3.67;2.20;;;23.00;58.50;;;;;;10530153;28;20024;-56
2022/07/30 21:25:48;;;;;;;2.47;2.00;;;23.00;58.70;;;;;;10529876;28;20035;-56
2022/07/30 21:30:49;;;;;;;3.42;1.98;;;23.00;58.70;;;;;;10530039;28;20039;-56
2022/07/30 21:35:50;;;;;;;2.60;2.30;;;23.00;59.30;;;;;;10530242;28;20570;-56
2022/07/30 21:40:50;;;;;;;2.47;1.80;;;23.00;58.70;;;;;;10529894;28;20051;-54
2022/07/30 21:45:51;;;;;;;3.60;2.38;;;23.00;58.70;;;;;;10511445;28;20055;-56
2022/07/30 21:50:53;;;;;;;3.13;2.63;;;23.00;58.70;;;;;;10511618;28;20109;-56
2022/07/30 21:55:54;;;;;;;4.03;2.53;;;23.00;58.70;;;;;;10511569;28;20031;-56
2022/07/30 22:00:54;;;;;;;2.53;2.33;;;23.00;58.70;;;;;;10529203;28;20063;-56
2022/07/30 22:05:56;;;;;;;3.33;2.38;;;23.00;58.70;;;;;;10528939;28;20024;-55
2022/07/30 22:10:57;;;;;;;3.67;2.67;;;23.00;58.70;;;;;;10511171;28;20478;-56
2022/07/30 22:15:57;;;;;;;3.45;2.42;;;23.00;58.70;;;;;;10531547;28;20044;-57
2022/07/30 22:20:58;;;;;;;2.92;2.15;;;23.00;58.70;;;;;;10536897;28;20479;-56
2022/07/30 22:25:59;;;;;;;3.17;2.15;;;23.00;58.70;;;;;;10537670;28;20161;-56
2022/07/30 22:30:59;;;;;;;2.60;2.20;;;23.00;58.70;;;;;;10536609;28;20030;-55
2022/07/30 22:36:00;;;;;;;2.55;2.20;;;23.00;58.70;;;;;;10536606;28;20046;-54
2022/07/30 22:41:01;;;;;;;2.97;2.28;;;23.00;58.70;;;;;;10537186;28;20181;-53
2022/07/30 22:46:02;;;;;;;2.28;1.75;;;23.00;58.80;;;;;;10536157;28;20023;-56
2022/07/30 22:51:03;;;;;;;4.35;2.55;;;23.00;58.70;;;;;;10536392;28;20103;-56
2022/07/30 22:56:04;;;;;;;3.30;2.13;;;23.00;58.70;;;;;;10517749;28;20097;-55
2022/07/30 23:01:05;;;;;;;2.67;2.28;;;23.00;58.70;;;;;;10536146;28;20082;-56
2022/07/30 23:06:06;;;;;;;2.53;2.10;;;23.00;58.80;;;;;;10535610;28;20609;-55
2022/07/30 23:11:06;;;;;;;3.80;2.47;;;23.00;58.90;;;;;;10534857;28;20103;-55
2022/07/30 23:16:07;;;;;;;2.95;2.40;;;23.00;59.00;;;;;;10535536;28;20482;-55
2022/07/30 23:21:08;;;;;;;2.72;2.08;;;23.00;59.00;;;;;;10534418;28;20032;-56
2022/07/30 23:26:09;;;;;;;2.65;2.40;;;23.00;58.90;;;;;;10526825;28;20027;-56
2022/07/30 23:31:10;;;;;;;3.42;2.30;;;23.00;58.90;;;;;;10534792;28;20020;-56
2022/07/30 23:36:10;;;;;;;2.72;2.28;;;23.00;59.00;;;;;;10534715;28;20032;-56
2022/07/30 23:41:11;;;;;;;3.28;2.35;;;23.00;59.00;;;;;;10534115;28;20495;-52
2022/07/30 23:46:12;;;;;;;2.78;2.35;;;23.00;59.00;;;;;;10515979;28;20028;-56
2022/07/30 23:51:13;;;;;;;4.38;2.40;;;23.00;59.00;;;;;;10533447;28;20066;-55
2022/07/30 23:56:15;;;;;;;3.47;2.00;;;23.00;59.00;;;;;;10533708;28;20111;-55
